Time;durP1;ratioP1;P1;durP2;ratioP2;P2;SDS_P1;SDS_P2;PMS_P1;PMS_P2;Temp;Humidity;BMP_temperature;BMP_pressure;BME280_temperature;BME280_humidity;BME280_pressure;Samples;Min_cycle;Max_cycle;Signal;HPM_P1;HPM_P2
2022/04/24 00:00:24;;;;;;;;;;;;;;;13.53;71.36;98752.50;4463180;32;33925;-91
2022/04/24 00:02:53;;;;;;;;;;;;;;;13.13;72.84;98742.75;4461115;32;33998;-90
2022/04/24 00:05:23;;;;;;;;;;;;;;;13.14;72.46;98732.28;4461485;32;34170;-90
2022/04/24 00:07:52;;;;;;;;;;;;;;;13.23;72.29;98739.72;4463297;32;34728;-90
2022/04/24 00:10:24;;;;;;;;;;;;;;;13.29;71.98;98743.03;4455791;32;34870;-92
2022/04/24 00:12:52;;;;;;;;;;;;;;;13.48;70.51;98738.78;4462761;32;34176;-91
2022/04/24 00:15:21;;;;;;;;;;;;;;;13.42;70.67;98737.28;4460551;32;33566;-90
2022/04/24 00:17:49;;;;;;;;;;;;;;;13.20;71.90;98736.41;4454528;32;33984;-91
2022/04/24 00:20:18;;;;;;;;;;;;;;;13.24;71.55;98738.84;4451221;32;33972;-90
2022/04/24 00:22:48;;;;;;;;;;;;;;;13.22;71.70;98732.84;4450522;32;34337;-90
2022/04/24 00:25:16;;;;;;;;;;;;;;;13.29;70.72;98730.88;4459523;32;33926;-91
2022/04/24 00:27:45;;;;;;;;;;;;;;;13.04;71.78;98720.53;4455087;32;33531;-90
2022/04/24 00:30:13;;;;;;;;;;;;;;;13.19;71.29;98700.84;4453290;32;33843;-92
2022/04/24 00:32:42;;;;;;;;;;;;;;;12.86;72.07;98701.28;4463557;32;33955;-91
2022/04/24 00:35:10;;;;;;;;;;;;;;;12.60;72.99;98695.28;4459038;32;33626;-90
2022/04/24 00:37:39;;;;;;;;;;;;;;;12.64;73.00;98700.41;4470914;32;33402;-92
2022/04/24 00:40:10;;;;;;;;;;;;;;;12.92;71.59;98702.78;4456274;32;32091;-91
2022/04/24 00:42:39;;;;;;;;;;;;;;;12.97;71.44;98711.25;4458860;32;34144;-91
2022/04/24 00:45:07;;;;;;;;;;;;;;;12.85;71.51;98709.12;4463744;32;34794;-92
2022/04/24 00:47:41;;;;;;;;;;;;;;;12.70;72.29;98708.78;4439392;32;31892;-90
2022/04/24 00:50:10;;;;;;;;;;;;;;;12.84;71.31;98712.66;4459606;32;34120;-91
2022/04/24 00:52:39;;;;;;;;;;;;;;;12.89;71.62;98711.56;4461563;32;34608;-92
2022/04/24 00:55:09;;;;;;;;;;;;;;;12.70;72.34;98700.16;4457537;32;33614;-91
2022/04/24 00:57:38;;;;;;;;;;;;;;;12.92;71.28;98706.22;4463438;32;33424;-90
2022/04/24 01:00:07;;;;;;;;;;;;;;;12.63;72.85;98711.69;4456689;32;35277;-90
2022/04/24 01:02:38;;;;;;;;;;;;;;;12.80;71.73;98710.12;4453072;32;34678;-92
2022/04/24 01:05:08;;;;;;;;;;;;;;;12.86;71.40;98714.28;4464913;32;33889;-90
2022/04/24 01:07:36;;;;;;;;;;;;;;;12.64;72.63;98716.00;4466170;32;33420;-90
2022/04/24 01:10:05;;;;;;;;;;;;;;;12.48;73.13;98711.34;4451952;32;33828;-91
2022/04/24 01:12:35;;;;;;;;;;;;;;;12.89;71.49;98718.53;4453114;32;34335;-91
2022/04/24 01:15:04;;;;;;;;;;;;;;;12.93;71.27;98714.91;4464234;32;34161;-90
2022/04/24 01:17:32;;;;;;;;;;;;;;;12.65;72.53;98712.47;4453119;32;33913;-90
2022/04/24 01:20:01;;;;;;;;;;;;;;;12.92;71.31;98708.81;4452550;32;34705;-92
2022/04/24 01:22:31;;;;;;;;;;;;;;;12.67;71.94;98693.31;4462819;32;34850;-90
2022/04/24 01:24:59;;;;;;;;;;;;;;;12.85;71.58;98699.56;4464217;32;34035;-90
2022/04/24 01:27:28;;;;;;;;;;;;;;;12.66;72.11;98696.81;4462668;32;33053;-90
2022/04/24 01:29:57;;;;;;;;;;;;;;;12.70;71.90;98697.53;4464179;32;34155;-91
2022/04/24 01:32:26;;;;;;;;;;;;;;;12.57;72.28;98690.19;4461203;32;37318;-90
2022/04/24 01:34:54;;;;;;;;;;;;;;;12.84;71.45;98692.66;4464404;32;33586;-93
2022/04/24 01:37:23;;;;;;;;;;;;;;;12.59;71.90;98695.34;4457570;32;33826;-93
2022/04/24 01:39:54;;;;;;;;;;;;;;;12.74;71.15;98683.53;4462655;32;34102;-89
2022/04/24 01:42:24;;;;;;;;;;;;;;;12.77;70.97;98671.22;4460410;32;33967;-89
2022/04/24 01:44:53;;;;;;;;;;;;;;;12.40;72.29;98673.53;4458427;32;33926;-92
2022/04/24 01:47:21;;;;;;;;;;;;;;;12.72;70.91;98677.53;4459854;32;33293;-90
2022/04/24 01:49:49;;;;;;;;;;;;;;;12.53;71.57;98679.97;4458711;32;33875;-92
2022/04/24 01:52:18;;;;;;;;;;;;;;;12.97;70.00;98685.22;4461573;32;34160;-90
2022/04/24 01:54:46;;;;;;;;;;;;;;;12.70;70.59;98682.78;4451091;32;34285;-90
2022/04/24 01:57:16;;;;;;;;;;;;;;;12.28;72.96;98678.28;4456460;32;33002;-89
2022/04/24 01:59:45;;;;;;;;;;;;;;;12.44;72.09;98680.28;4450345;32;34020;-92
2022/04/24 02:02:13;;;;;;;;;;;;;;;11.90;74.53;98679.62;4459263;32;34270;-91
2022/04/24 02:04:42;;;;;;;;;;;;;;;12.40;72.29;98689.13;4452649;32;34171;-88
2022/04/24 02:07:11;;;;;;;;;;;;;;;12.07;73.21;98673.84;4461848;32;33332;-89
2022/04/24 02:09:40;;;;;;;;;;;;;;;12.30;72.73;98683.44;4453967;32;33955;-91
2022/04/24 02:12:09;;;;;;;;;;;;;;;12.64;71.30;98683.03;4450124;32;33599;-89
2022/04/24 02:14:39;;;;;;;;;;;;;;;12.10;73.56;98677.16;4455035;32;34095;-90
2022/04/24 02:17:11;;;;;;;;;;;;;;;12.56;71.56;98682.44;4461422;32;33181;-90
2022/04/24 02:19:39;;;;;;;;;;;;;;;12.71;71.14;98688.81;4464179;32;34137;-89
2022/04/24 02:22:08;;;;;;;;;;;;;;;12.05;73.65;98678.25;4464025;32;35374;-92
2022/04/24 02:24:37;;;;;;;;;;;;;;;12.40;71.97;98674.37;4451336;32;34672;-89
2022/04/24 02:27:05;;;;;;;;;;;;;;;12.51;71.59;98676.56;4454386;32;34506;-92
2022/04/24 02:29:34;;;;;;;;;;;;;;;12.71;70.75;98676.69;4456822;32;33901;-91
2022/04/24 02:32:04;;;;;;;;;;;;;;;12.78;70.26;98669.47;4463586;32;34193;-89
2022/04/24 02:34:33;;;;;;;;;;;;;;;12.44;71.60;98655.12;4463288;32;33322;-90
2022/04/24 02:37:01;;;;;;;;;;;;;;;12.47;71.60;98662.00;4468116;32;32841;-90
2022/04/24 02:39:30;;;;;;;;;;;;;;;12.69;70.76;98673.28;4457110;32;34311;-92
2022/04/24 02:41:58;;;;;;;;;;;;;;;12.00;73.34;98659.34;4463375;32;35012;-92
2022/04/24 02:44:27;;;;;;;;;;;;;;;12.67;70.61;98682.06;4457206;32;33720;-90
2022/04/24 02:46:55;;;;;;;;;;;;;;;12.30;72.19;98666.06;4450481;32;33174;-91
2022/04/24 02:49:25;;;;;;;;;;;;;;;12.62;70.94;98687.44;4454826;32;33493;-92
2022/04/24 02:51:54;;;;;;;;;;;;;;;12.13;72.71;98671.03;4463445;32;33599;-92
2022/04/24 02:54:22;;;;;;;;;;;;;;;12.64;70.57;98663.97;4460208;32;34232;-90
2022/04/24 02:56:50;;;;;;;;;;;;;;;12.18;72.15;98666.50;4456407;32;33340;-90
2022/04/24 02:59:21;;;;;;;;;;;;;;;12.47;71.25;98662.84;4450995;32;33735;-94
2022/04/24 03:01:49;;;;;;;;;;;;;;;12.78;69.67;98661.66;4456721;32;34342;-93
2022/04/24 03:04:19;;;;;;;;;;;;;;;12.56;70.43;98659.03;4458294;32;34078;-94
2022/04/24 03:06:49;;;;;;;;;;;;;;;12.20;71.89;98654.28;4471943;32;33332;-94
2022/04/24 03:09:18;;;;;;;;;;;;;;;12.11;72.52;98650.28;4455408;32;33901;-90
2022/04/24 03:11:46;;;;;;;;;;;;;;;12.08;72.79;98644.31;4461768;32;34517;-90
2022/04/24 03:14:15;;;;;;;;;;;;;;;12.16;72.38;98644.91;4469499;32;34719;-90
2022/04/24 03:16:43;;;;;;;;;;;;;;;11.92;73.46;98641.44;4456329;32;33660;-90
2022/04/24 03:19:11;;;;;;;;;;;;;;;12.00;72.97;98634.22;4454819;32;34029;-91
2022/04/24 03:21:40;;;;;;;;;;;;;;;12.07;72.59;98642.63;4438421;32;33417;-91
2022/04/24 03:24:10;;;;;;;;;;;;;;;12.16;72.20;98637.97;4462663;32;33535;-91
2022/04/24 03:26:39;;;;;;;;;;;;;;;11.88;73.42;98634.66;4456360;32;32786;-90
2022/04/24 03:29:07;;;;;;;;;;;;;;;12.30;71.76;98632.25;4454777;32;33461;-92
2022/04/24 03:31:36;;;;;;;;;;;;;;;11.99;72.68;98626.47;4460170;32;34428;-91
2022/04/24 03:34:05;;;;;;;;;;;;;;;12.32;71.50;98625.25;4464178;32;33552;-88
2022/04/24 03:36:34;;;;;;;;;;;;;;;12.22;72.08;98613.47;4465953;32;32825;-89
2022/04/24 03:39:02;;;;;;;;;;;;;;;12.34;71.96;98617.38;4455439;32;34134;-90
2022/04/24 03:41:35;;;;;;;;;;;;;;;12.24;72.36;98616.88;4467022;32;33115;-92
2022/04/24 03:44:04;;;;;;;;;;;;;;;12.17;72.28;98615.41;4467273;32;34025;-93
2022/04/24 03:46:32;;;;;;;;;;;;;;;12.05;73.30;98605.44;4455865;32;33221;-92
2022/04/24 03:49:01;;;;;;;;;;;;;;;12.19;72.92;98612.75;4455315;32;34818;-92
2022/04/24 03:51:29;;;;;;;;;;;;;;;12.13;73.06;98617.28;4465893;32;34397;-90
2022/04/24 03:53:58;;;;;;;;;;;;;;;12.45;71.91;98604.81;4466014;32;33560;-90
2022/04/24 03:56:31;;;;;;;;;;;;;;;12.63;70.86;98616.25;4462188;32;33039;-91
2022/04/24 03:59:01;;;;;;;;;;;;;;;12.52;71.23;98618.44;4448354;32;32624;-89
2022/04/24 04:01:29;;;;;;;;;;;;;;;12.53;71.19;98607.97;4455365;32;33302;-90
2022/04/24 04:03:58;;;;;;;;;;;;;;;12.44;71.50;98613.50;4464380;32;34185;-90
2022/04/24 04:06:27;;;;;;;;;;;;;;;12.37;71.78;98606.84;4480254;32;33333;-91
2022/04/24 04:08:56;;;;;;;;;;;;;;;12.56;71.21;98609.59;4471364;32;34938;-90
2022/04/24 04:11:26;;;;;;;;;;;;;;;12.72;70.55;98610.69;4458509;32;35138;-90
2022/04/24 04:13:54;;;;;;;;;;;;;;;12.55;71.11;98615.72;4465282;32;33782;-90
2022/04/24 04:16:25;;;;;;;;;;;;;;;12.25;72.22;98620.31;4457563;32;33990;-91
2022/04/24 04:18:54;;;;;;;;;;;;;;;12.46;71.74;98626.47;4455845;32;35041;-93
2022/04/24 04:21:22;;;;;;;;;;;;;;;12.51;71.55;98621.94;4455709;32;34329;-92
2022/04/24 04:23:54;;;;;;;;;;;;;;;12.56;71.89;98625.19;4465500;32;33935;-90
2022/04/24 04:26:23;;;;;;;;;;;;;;;12.54;71.49;98620.09;4465507;32;33029;-91
2022/04/24 04:28:51;;;;;;;;;;;;;;;12.69;70.95;98613.44;4458540;32;34125;-93
2022/04/24 04:31:20;;;;;;;;;;;;;;;12.56;71.37;98613.06;4457084;32;33959;-91
2022/04/24 04:33:50;;;;;;;;;;;;;;;12.53;71.66;98610.56;4461409;32;34885;-90
2022/04/24 04:36:19;;;;;;;;;;;;;;;12.49;71.70;98610.72;4466459;32;33264;-91
2022/04/24 04:38:48;;;;;;;;;;;;;;;12.43;72.09;98614.44;4462864;32;33965;-91
2022/04/24 04:41:17;;;;;;;;;;;;;;;12.44;71.97;98623.06;4463466;32;34319;-91
2022/04/24 04:43:45;;;;;;;;;;;;;;;12.88;70.03;98631.78;4457999;32;33604;-90
2022/04/24 04:46:14;;;;;;;;;;;;;;;12.78;70.01;98627.81;4462839;32;33629;-91
2022/04/24 04:48:42;;;;;;;;;;;;;;;12.76;70.48;98616.66;4460017;32;33951;-89
2022/04/24 04:51:12;;;;;;;;;;;;;;;12.87;70.11;98619.66;4460376;32;34343;-92
2022/04/24 04:53:41;;;;;;;;;;;;;;;12.67;70.69;98622.22;4460434;32;33384;-92
2022/04/24 04:56:10;;;;;;;;;;;;;;;12.92;69.93;98616.88;4455567;32;33345;-91
2022/04/24 04:58:38;;;;;;;;;;;;;;;12.94;69.86;98621.09;4459963;32;34835;-93
2022/04/24 05:01:07;;;;;;;;;;;;;;;12.66;71.34;98623.97;4464772;32;35026;-90
2022/04/24 05:03:35;;;;;;;;;;;;;;;12.78;71.63;98612.22;4460472;32;34677;-90
2022/04/24 05:06:04;;;;;;;;;;;;;;;13.24;69.58;98615.59;4473733;32;32946;-90
2022/04/24 05:08:34;;;;;;;;;;;;;;;13.45;69.00;98613.84;4454663;32;34110;-90
2022/04/24 05:11:07;;;;;;;;;;;;;;;13.26;69.27;98615.50;4461728;32;34104;-90
2022/04/24 05:13:36;;;;;;;;;;;;;;;13.03;69.76;98601.69;4462269;32;34794;-89
2022/04/24 05:16:05;;;;;;;;;;;;;;;13.21;69.68;98597.47;4465993;32;34103;-91
2022/04/24 05:18:33;;;;;;;;;;;;;;;13.10;70.28;98597.91;4457292;32;34121;-91
2022/04/24 05:21:02;;;;;;;;;;;;;;;13.51;68.90;98590.16;4458121;32;34412;-91
2022/04/24 05:23:30;;;;;;;;;;;;;;;13.56;69.07;98598.63;4454539;32;34388;-90
2022/04/24 05:26:00;;;;;;;;;;;;;;;13.47;69.50;98604.22;4453483;32;32521;-90
2022/04/24 05:28:29;;;;;;;;;;;;;;;13.72;68.71;98605.78;4451645;32;34708;-90
2022/04/24 05:30:58;;;;;;;;;;;;;;;13.54;70.05;98597.84;4449882;32;34255;-91
2022/04/24 05:33:26;;;;;;;;;;;;;;;13.87;69.29;98594.69;4466275;32;33977;-90
2022/04/24 05:35:55;;;;;;;;;;;;;;;14.32;68.00;98590.91;4456136;32;32403;-91
2022/04/24 05:38:30;;;;;;;;;;;;;;;14.64;66.23;98583.37;4461834;32;33785;-92
2022/04/24 05:41:00;;;;;;;;;;;;;;;14.87;64.69;98590.13;4466587;32;33841;-93
2022/04/24 05:43:29;;;;;;;;;;;;;;;14.87;65.02;98601.41;4469095;32;33741;-90
2022/04/24 05:45:57;;;;;;;;;;;;;;;14.94;65.19;98615.84;4482124;32;33424;-89
2022/04/24 05:48:26;;;;;;;;;;;;;;;15.15;64.05;98619.19;4477746;32;34312;-92
2022/04/24 05:50:54;;;;;;;;;;;;;;;14.50;65.78;98612.72;4466436;32;34052;-90
2022/04/24 05:53:23;;;;;;;;;;;;;;;14.83;64.22;98620.72;4468349;32;34692;-90
2022/04/24 05:55:51;;;;;;;;;;;;;;;14.36;65.27;98615.13;4465488;32;33428;-90
2022/04/24 05:58:21;;;;;;;;;;;;;;;14.70;64.38;98607.44;4465102;32;34665;-89
2022/04/24 06:00:49;;;;;;;;;;;;;;;14.74;64.87;98608.13;4463401;32;34146;-89
2022/04/24 06:03:18;;;;;;;;;;;;;;;14.82;65.36;98610.38;4457876;32;34102;-90
2022/04/24 06:05:47;;;;;;;;;;;;;;;14.89;65.27;98612.63;4460264;32;33269;-89
2022/04/24 06:08:16;;;;;;;;;;;;;;;14.78;65.70;98604.44;4453241;32;33972;-92
2022/04/24 06:10:44;;;;;;;;;;;;;;;14.90;65.72;98597.78;4465673;32;34276;-92
2022/04/24 06:13:13;;;;;;;;;;;;;;;14.84;66.00;98605.94;4468709;32;34347;-90
2022/04/24 06:15:43;;;;;;;;;;;;;;;15.01;65.90;98600.75;4466335;32;33964;-92
2022/04/24 06:18:12;;;;;;;;;;;;;;;14.82;65.97;98598.16;4464131;32;33282;-89
2022/04/24 06:20:40;;;;;;;;;;;;;;;15.12;64.81;98602.81;4464965;32;34085;-92
2022/04/24 06:23:09;;;;;;;;;;;;;;;15.32;63.78;98601.84;4465494;32;34606;-92
2022/04/24 06:25:38;;;;;;;;;;;;;;;15.18;64.06;98602.53;4465935;32;33925;-89
2022/04/24 06:28:06;;;;;;;;;;;;;;;15.22;64.09;98598.84;4464994;32;34223;-92
2022/04/24 06:30:40;;;;;;;;;;;;;;;15.27;63.61;98607.31;4468143;32;34922;-90
2022/04/24 06:33:10;;;;;;;;;;;;;;;15.43;63.32;98609.97;4464750;32;34698;-90
2022/04/24 06:35:39;;;;;;;;;;;;;;;15.46;63.81;98608.97;4450630;32;33204;-90
2022/04/24 06:38:09;;;;;;;;;;;;;;;15.49;64.15;98608.84;4460813;32;33939;-90
2022/04/24 06:40:37;;;;;;;;;;;;;;;15.54;64.18;98601.59;4467963;32;33883;-88
2022/04/24 06:43:06;;;;;;;;;;;;;;;15.60;64.21;98600.44;4469633;32;33918;-90
2022/04/24 06:45:37;;;;;;;;;;;;;;;15.79;63.70;98598.59;4458009;32;33438;-90
2022/04/24 06:48:06;;;;;;;;;;;;;;;15.86;62.92;98588.66;4448654;32;34158;-92
2022/04/24 06:50:36;;;;;;;;;;;;;;;15.67;63.76;98593.97;4451626;32;33875;-90
2022/04/24 06:53:07;;;;;;;;;;;;;;;15.93;63.50;98580.41;4450270;32;32870;-91
2022/04/24 06:55:36;;;;;;;;;;;;;;;16.03;63.11;98579.94;4456004;32;32461;-90
2022/04/24 06:58:05;;;;;;;;;;;;;;;16.00;62.76;98584.41;4457658;32;34117;-90
2022/04/24 07:00:36;;;;;;;;;;;;;;;16.18;63.29;98581.72;4481303;32;34732;-91
2022/04/24 07:03:26;;;;;;;;;;;;;;;16.30;62.27;98577.59;4478988;32;34143;-90
2022/04/24 07:05:57;;;;;;;;;;;;;;;16.33;62.85;98578.28;4482779;32;32897;-90
2022/04/24 07:08:26;;;;;;;;;;;;;;;16.38;62.81;98573.66;4471931;32;33540;-91
2022/04/24 07:10:54;;;;;;;;;;;;;;;16.41;62.24;98575.25;4467260;32;34530;-90
2022/04/24 07:13:22;;;;;;;;;;;;;;;16.79;61.01;98581.00;4474562;32;33811;-92
2022/04/24 07:15:51;;;;;;;;;;;;;;;16.70;61.18;98575.41;4470784;32;33335;-91
2022/04/24 07:18:20;;;;;;;;;;;;;;;16.97;61.01;98575.66;4469503;32;34973;-91
2022/04/24 07:20:49;;;;;;;;;;;;;;;16.87;60.18;98570.09;4473944;32;33876;-90
2022/04/24 07:23:19;;;;;;;;;;;;;;;16.88;59.18;98573.56;4462266;32;33766;-88
2022/04/24 07:25:48;;;;;;;;;;;;;;;16.74;60.03;98574.28;4478236;32;33438;-90
2022/04/24 07:28:19;;;;;;;;;;;;;;;16.98;59.54;98556.38;4468688;32;33460;-90
2022/04/24 07:30:48;;;;;;;;;;;;;;;16.97;61.02;98563.38;4472443;32;35097;-89
2022/04/24 07:33:16;;;;;;;;;;;;;;;17.21;60.20;98555.06;4482768;32;34968;-89
2022/04/24 07:35:45;;;;;;;;;;;;;;;17.29;59.96;98555.44;4468520;32;31613;-90
2022/04/24 07:38:14;;;;;;;;;;;;;;;17.32;59.79;98552.63;4483738;32;34670;-89
2022/04/24 07:40:43;;;;;;;;;;;;;;;17.27;59.52;98554.66;4475058;32;33638;-91
2022/04/24 07:43:12;;;;;;;;;;;;;;;17.48;59.59;98563.06;4467921;32;34115;-89
2022/04/24 07:45:41;;;;;;;;;;;;;;;17.63;59.32;98554.25;4467595;32;33374;-90
2022/04/24 07:48:11;;;;;;;;;;;;;;;17.49;59.27;98562.97;4466947;32;34386;-89
2022/04/24 07:50:40;;;;;;;;;;;;;;;17.53;59.47;98570.66;4467297;32;33732;-88
2022/04/24 07:53:09;;;;;;;;;;;;;;;17.58;58.96;98573.84;4470026;32;34024;-88
2022/04/24 07:55:37;;;;;;;;;;;;;;;17.74;59.04;98566.75;4467439;32;33447;-88
2022/04/24 07:58:07;;;;;;;;;;;;;;;18.02;58.86;98572.94;4466768;32;34074;-90
2022/04/24 08:00:36;;;;;;;;;;;;;;;18.23;58.32;98566.38;4468646;32;34151;-89
2022/04/24 08:03:06;;;;;;;;;;;;;;;17.89;59.15;98568.47;4473643;32;33906;-89
2022/04/24 08:05:37;;;;;;;;;;;;;;;17.92;58.14;98554.31;4469914;32;33796;-88
2022/04/24 08:08:07;;;;;;;;;;;;;;;17.90;58.84;98538.69;4466482;32;34800;-91
2022/04/24 08:10:35;;;;;;;;;;;;;;;18.06;59.16;98540.34;4466914;32;33886;-89
2022/04/24 08:13:06;;;;;;;;;;;;;;;18.31;58.71;98545.75;4467629;32;34195;-88
2022/04/24 08:15:45;;;;;;;;;;;;;;;18.61;57.96;98549.97;4466836;32;33384;-90
2022/04/24 08:18:14;;;;;;;;;;;;;;;18.87;56.95;98537.81;4467114;32;33674;-88
2022/04/24 08:20:42;;;;;;;;;;;;;;;18.84;56.41;98534.53;4469953;32;34483;-91
2022/04/24 08:23:11;;;;;;;;;;;;;;;19.09;55.29;98539.03;4469156;32;34508;-89
2022/04/24 08:25:43;;;;;;;;;;;;;;;18.94;56.12;98532.97;4466656;32;33043;-90
2022/04/24 08:28:12;;;;;;;;;;;;;;;19.50;54.91;98515.19;4467839;32;33832;-91
2022/04/24 08:30:45;;;;;;;;;;;;;;;19.53;54.07;98520.22;4467103;32;35308;-92
2022/04/24 08:33:15;;;;;;;;;;;;;;;19.70;53.78;98523.53;4469564;32;33250;-90
2022/04/24 08:35:48;;;;;;;;;;;;;;;19.58;53.42;98525.19;4469517;32;33279;-91
2022/04/24 08:38:17;;;;;;;;;;;;;;;20.04;53.12;98525.47;4467045;32;33521;-91
2022/04/24 08:40:46;;;;;;;;;;;;;;;20.00;52.91;98518.72;4467521;32;33892;-89
2022/04/24 08:43:14;;;;;;;;;;;;;;;19.99;53.76;98509.16;4466657;32;33462;-91
2022/04/24 08:45:46;;;;;;;;;;;;;;;20.17;53.07;98508.78;4466555;32;33642;-89
2022/04/24 08:48:14;;;;;;;;;;;;;;;20.55;52.00;98498.16;4482323;32;34213;-91
2022/04/24 08:50:43;;;;;;;;;;;;;;;20.89;50.94;98496.50;4481894;32;34225;-89
2022/04/24 08:53:11;;;;;;;;;;;;;;;20.58;50.49;98505.00;4482829;32;34715;-89
2022/04/24 08:55:40;;;;;;;;;;;;;;;20.50;50.84;98500.25;4482212;32;33567;-91
2022/04/24 08:58:09;;;;;;;;;;;;;;;20.84;51.19;98480.19;4482978;32;34761;-88
2022/04/24 09:00:38;;;;;;;;;;;;;;;20.76;49.35;98489.63;4480451;32;33470;-88
2022/04/24 09:03:15;;;;;;;;;;;;;;;21.03;48.76;98484.94;4473212;32;34720;-89
2022/04/24 09:05:44;;;;;;;;;;;;;;;20.99;48.85;98474.72;4481719;32;32834;-89
2022/04/24 09:08:15;;;;;;;;;;;;;;;21.04;47.17;98491.87;4468517;32;34965;-88
2022/04/24 09:11:04;;;;;;;;;;;;;;;20.98;45.86;98473.88;4481982;32;34522;-89
2022/04/24 09:14:14;;;;;;;;;;;;;;;21.02;45.06;98485.03;4482207;32;34882;-90
2022/04/24 09:16:25;;;;;;;;;;;;;;;21.14;45.21;98478.81;4481187;32;34129;-90
2022/04/24 09:18:58;;;;;;;;;;;;;;;21.24;45.20;98469.28;4469159;32;33897;-91
2022/04/24 09:21:27;;;;;;;;;;;;;;;21.38;43.73;98462.09;4466524;32;33771;-90
2022/04/24 09:24:01;;;;;;;;;;;;;;;21.61;43.64;98481.44;4466146;32;33923;-89
2022/04/24 09:26:29;;;;;;;;;;;;;;;21.62;42.45;98485.75;4440846;32;33234;-88
2022/04/24 09:29:13;;;;;;;;;;;;;;;21.58;41.58;98485.19;4450130;32;33693;-88
2022/04/24 09:31:46;;;;;;;;;;;;;;;21.54;40.19;98465.25;4450092;32;33932;-88
2022/04/24 09:34:17;;;;;;;;;;;;;;;21.58;41.78;98464.06;4453712;32;33799;-89
2022/04/24 09:36:45;;;;;;;;;;;;;;;21.76;41.75;98461.75;4450036;32;32600;-90
2022/04/24 09:39:15;;;;;;;;;;;;;;;21.77;39.79;98466.09;4451794;32;33858;-91
2022/04/24 09:41:44;;;;;;;;;;;;;;;21.82;41.35;98468.34;4466625;32;33988;-89
2022/04/24 09:44:15;;;;;;;;;;;;;;;21.69;40.20;98479.88;4466002;32;33742;-89
2022/04/24 09:46:50;;;;;;;;;;;;;;;21.49;40.87;98459.50;4473375;32;33236;-88
2022/04/24 09:49:19;;;;;;;;;;;;;;;21.50;40.40;98463.81;4481061;32;35598;-88
2022/04/24 09:51:48;;;;;;;;;;;;;;;21.54;38.91;98478.44;4466795;32;35729;-88
2022/04/24 09:54:22;;;;;;;;;;;;;;;21.36;38.71;98472.78;4465486;32;34218;-90
2022/04/24 09:56:56;;;;;;;;;;;;;;;20.98;37.88;98473.88;4466493;32;33316;-88
2022/04/24 09:59:24;;;;;;;;;;;;;;;21.08;38.34;98476.66;4465905;32;34913;-89
2022/04/24 10:01:52;;;;;;;;;;;;;;;21.17;38.26;98475.97;4469604;32;34854;-88
2022/04/24 10:04:23;;;;;;;;;;;;;;;21.24;38.08;98477.19;4467415;32;34703;-88
2022/04/24 10:06:51;;;;;;;;;;;;;;;21.12;38.91;98499.22;4466189;32;33977;-89
2022/04/24 10:09:19;;;;;;;;;;;;;;;20.95;38.59;98497.00;4451846;32;33255;-91
2022/04/24 10:11:50;;;;;;;;;;;;;;;20.72;39.09;98498.72;4465843;32;34367;-88
2022/04/24 10:14:19;;;;;;;;;;;;;;;20.82;38.63;98510.25;4468590;32;36496;-89
2022/04/24 10:17:06;;;;;;;;;;;;;;;20.74;38.70;98508.19;4468306;32;33920;-90
2022/04/24 10:19:41;;;;;;;;;;;;;;;20.64;40.05;98512.47;4468830;32;33474;-88
2022/04/24 10:22:14;;;;;;;;;;;;;;;20.70;40.35;98508.53;4481028;32;34368;-89
2022/04/24 10:24:44;;;;;;;;;;;;;;;20.58;40.26;98508.47;4480187;32;33993;-88
2022/04/24 10:27:14;;;;;;;;;;;;;;;20.56;41.23;98512.16;4481167;32;34185;-89
2022/04/24 10:29:49;;;;;;;;;;;;;;;20.30;42.64;98528.06;4483597;32;33829;-90
2022/04/24 10:32:26;;;;;;;;;;;;;;;19.88;42.89;98519.59;4485424;32;34244;-88
2022/04/24 10:34:55;;;;;;;;;;;;;;;19.88;43.84;98516.97;4483078;32;35010;-88
2022/04/24 10:37:28;;;;;;;;;;;;;;;19.84;42.57;98523.41;4483313;32;34922;-88
2022/04/24 10:39:57;;;;;;;;;;;;;;;19.90;42.56;98511.59;4475770;32;33933;-90
2022/04/24 10:42:30;;;;;;;;;;;;;;;19.80;42.14;98514.87;4475981;32;34267;-87
2022/04/24 10:45:04;;;;;;;;;;;;;;;19.50;43.37;98502.03;4468662;32;34741;-88
2022/04/24 10:47:41;;;;;;;;;;;;;;;19.79;42.89;98500.03;4465290;32;33122;-87
2022/04/24 10:50:11;;;;;;;;;;;;;;;19.68;43.50;98496.47;4472167;32;34901;-89
2022/04/24 10:52:43;;;;;;;;;;;;;;;19.61;43.93;98498.66;4467391;32;33239;-88
2022/04/24 10:55:13;;;;;;;;;;;;;;;19.47;43.69;98496.97;4468019;32;34607;-87
2022/04/24 10:57:42;;;;;;;;;;;;;;;19.56;43.55;98484.97;4451865;32;32491;-88
2022/04/24 11:00:22;;;;;;;;;;;;;;;19.47;43.82;98489.06;4475207;32;34632;-87
2022/04/24 11:02:51;;;;;;;;;;;;;;;19.31;43.90;98491.09;4467641;32;35463;-90
2022/04/24 11:05:26;;;;;;;;;;;;;;;18.90;45.24;98492.94;4464940;32;33406;-89
2022/04/24 11:08:01;;;;;;;;;;;;;;;19.25;45.11;98494.13;4465002;32;32780;-89
2022/04/24 11:10:29;;;;;;;;;;;;;;;19.37;44.61;98504.66;4466547;32;33341;-87
2022/04/24 11:12:58;;;;;;;;;;;;;;;19.26;45.15;98503.72;4467993;32;34673;-88
2022/04/24 11:15:26;;;;;;;;;;;;;;;19.23;45.52;98524.94;4467814;32;33802;-88
2022/04/24 11:17:55;;;;;;;;;;;;;;;19.29;45.44;98503.50;4479944;32;32752;-88
2022/04/24 11:20:31;;;;;;;;;;;;;;;19.32;44.97;98508.53;4480138;32;33789;-90
2022/04/24 11:22:59;;;;;;;;;;;;;;;18.98;46.00;98503.75;4480884;32;34019;-89
2022/04/24 11:25:28;;;;;;;;;;;;;;;19.23;45.74;98515.25;4482492;32;33794;-88
2022/04/24 11:27:57;;;;;;;;;;;;;;;19.15;46.25;98514.94;4485898;32;33915;-90
2022/04/24 11:33:51;;;;;;;;;;;;;;;19.25;45.98;98523.88;4468673;32;33651;-90
2022/04/24 11:36:21;;;;;;;;;;;;;;;19.01;46.49;98517.66;4465070;32;33257;-87
2022/04/24 11:38:50;;;;;;;;;;;;;;;19.03;46.92;98511.34;4465557;32;34114;-90
2022/04/24 11:41:20;;;;;;;;;;;;;;;19.13;46.48;98512.41;4465104;32;34284;-88
2022/04/24 11:43:49;;;;;;;;;;;;;;;19.00;47.60;98513.34;4465070;32;33363;-90
2022/04/24 11:51:53;;;;;;;;;;;;;;;19.19;48.24;98529.56;4465051;32;34051;-87
2022/04/24 11:54:22;;;;;;;;;;;;;;;19.25;48.77;98509.91;4464881;32;33537;-88
2022/04/24 11:56:51;;;;;;;;;;;;;;;19.26;49.04;98501.09;4464993;32;34565;-88
2022/04/24 11:59:20;;;;;;;;;;;;;;;19.54;48.35;98485.06;4465186;32;32968;-89
2022/04/24 12:01:55;;;;;;;;;;;;;;;19.73;47.64;98486.47;4470259;32;33726;-88
2022/04/24 12:04:26;;;;;;;;;;;;;;;20.02;47.30;98487.88;4469771;32;34256;-88
2022/04/24 12:07:01;;;;;;;;;;;;;;;20.37;46.63;98486.28;4465216;32;32883;-90
2022/04/24 12:09:30;;;;;;;;;;;;;;;20.58;45.84;98489.19;4465446;32;33410;-89
2022/04/24 12:12:08;;;;;;;;;;;;;;;20.72;45.58;98483.75;4464846;32;34836;-89
2022/04/24 12:14:37;;;;;;;;;;;;;;;20.89;45.39;98456.94;4464927;32;34212;-88
2022/04/24 12:17:07;;;;;;;;;;;;;;;21.06;46.18;98460.13;4469544;32;34018;-87
2022/04/24 12:19:35;;;;;;;;;;;;;;;21.17;46.06;98451.41;4465075;32;34206;-90
2022/04/24 12:22:07;;;;;;;;;;;;;;;21.39;45.89;98454.09;4465270;32;34837;-88
2022/04/24 12:24:39;;;;;;;;;;;;;;;21.78;44.11;98451.09;4468624;32;33968;-88
2022/04/24 12:27:09;;;;;;;;;;;;;;;21.64;44.21;98463.56;4469769;32;33257;-89
2022/04/24 12:29:41;;;;;;;;;;;;;;;21.63;43.93;98461.91;4476066;32;33982;-89
2022/04/24 12:32:14;;;;;;;;;;;;;;;21.64;43.68;98463.56;4485146;32;33480;-89
2022/04/24 12:34:43;;;;;;;;;;;;;;;21.65;43.35;98473.19;4480823;32;33865;-88
2022/04/24 12:37:13;;;;;;;;;;;;;;;21.67;43.85;98471.25;4480227;32;33900;-89
2022/04/24 12:39:51;;;;;;;;;;;;;;;21.64;42.99;98466.19;4475997;32;33337;-88
2022/04/24 12:42:20;;;;;;;;;;;;;;;21.43;42.38;98459.97;4464592;32;33804;-88
2022/04/24 12:44:50;;;;;;;;;;;;;;;21.17;42.65;98454.03;4465733;32;34592;-88
2022/04/24 12:47:19;;;;;;;;;;;;;;;21.12;42.90;98438.56;4469446;32;34206;-88
2022/04/24 12:49:49;;;;;;;;;;;;;;;21.27;43.87;98429.47;4464543;32;32986;-89
2022/04/24 12:52:21;;;;;;;;;;;;;;;21.24;43.17;98442.06;4466482;32;34081;-88
2022/04/24 12:54:52;;;;;;;;;;;;;;;21.15;43.41;98446.25;4464597;32;35103;-88
2022/04/24 12:57:20;;;;;;;;;;;;;;;21.39;43.60;98450.59;4465265;32;33990;-90
2022/04/24 12:59:49;;;;;;;;;;;;;;;21.55;42.69;98444.97;4468841;32;33389;-87
2022/04/24 13:02:19;;;;;;;;;;;;;;;21.13;42.38;98448.16;4464787;32;34212;-89
2022/04/24 13:04:48;;;;;;;;;;;;;;;21.18;42.84;98446.00;4465067;32;34235;-89
2022/04/24 13:07:17;;;;;;;;;;;;;;;21.31;43.02;98444.09;4465097;32;34436;-89
2022/04/24 13:09:47;;;;;;;;;;;;;;;21.12;43.15;98448.25;4464729;32;33518;-88